Time;durP1;ratioP1;P1;durP2;ratioP2;P2;SDS_P1;SDS_P2;PMS_P1;PMS_P2;Temp;Humidity;BMP_temperature;BMP_pressure;BME280_temperature;BME280_humidity;BME280_pressure;Samples;Min_cycle;Max_cycle;Signal;HPM_P1;HPM_P2
2024/01/22 00:01:52;;;;;;;20.70;18.80;;;-0.80;99.90;;;;;;5044949;28;20872;-79
2024/01/22 00:04:19;;;;;;;20.30;18.40;;;-0.80;99.90;;;;;;5047827;28;20506;-78
2024/01/22 00:06:46;;;;;;;20.37;18.47;;;-0.80;99.90;;;;;;5046387;28;21008;-78
2024/01/22 00:09:14;;;;;;;19.53;17.73;;;-0.80;99.90;;;;;;5049420;28;20897;-78
2024/01/22 00:11:41;;;;;;;20.87;18.87;;;-0.80;99.90;;;;;;5038588;28;20456;-78
2024/01/22 00:14:07;;;;;;;19.23;17.53;;;-0.80;99.90;;;;;;5041871;28;20582;-78
2024/01/22 00:16:39;;;;;;;18.87;17.23;;;-0.80;99.90;;;;;;5047982;28;20508;-78
2024/01/22 00:19:06;;;;;;;18.77;16.90;;;-0.80;99.90;;;;;;5037526;28;20471;-78
2024/01/22 00:21:33;;;;;;;20.37;18.30;;;-0.80;99.90;;;;;;5044138;28;20444;-78
2024/01/22 00:24:00;;;;;;;19.80;17.90;;;-0.80;99.90;;;;;;5043873;28;20498;-78
2024/01/22 00:26:28;;;;;;;20.90;18.90;;;-0.80;99.90;;;;;;5045522;28;20445;-78
2024/01/22 00:28:54;;;;;;;20.50;18.50;;;-0.80;99.90;;;;;;5043456;28;20513;-78
2024/01/22 00:31:21;;;;;;;19.53;17.93;;;-0.90;99.90;;;;;;5043726;28;21027;-78
2024/01/22 00:33:48;;;;;;;20.70;18.87;;;-0.90;99.90;;;;;;5040314;28;20442;-79
2024/01/22 00:36:15;;;;;;;20.00;18.13;;;-0.80;99.90;;;;;;5037689;28;20491;-78
2024/01/22 00:38:42;;;;;;;20.10;18.37;;;-0.80;99.90;;;;;;5044510;28;20977;-78
2024/01/22 00:41:09;;;;;;;20.37;18.30;;;-0.80;99.90;;;;;;5042713;28;20984;-78
2024/01/22 00:43:38;;;;;;;19.73;18.03;;;-0.70;99.90;;;;;;5031260;28;20510;-79
2024/01/22 00:46:05;;;;;;;19.07;17.27;;;-0.60;99.90;;;;;;5039447;28;20476;-78
2024/01/22 00:48:31;;;;;;;18.20;16.73;;;-0.60;99.90;;;;;;5045951;28;20502;-78
2024/01/22 00:50:58;;;;;;;18.40;16.83;;;-0.50;99.90;;;;;;5039881;28;20441;-78
2024/01/22 00:53:25;;;;;;;17.50;15.80;;;-0.60;99.90;;;;;;5046593;28;20870;-78
2024/01/22 00:55:52;;;;;;;18.10;16.50;;;-0.60;99.90;;;;;;5045719;28;20435;-79
2024/01/22 00:58:19;;;;;;;18.83;17.23;;;-0.60;99.90;;;;;;5042916;28;20464;-78
2024/01/22 01:00:47;;;;;;;18.50;16.93;;;-0.70;99.90;;;;;;5043017;28;20433;-78
2024/01/22 01:03:14;;;;;;;18.23;16.70;;;-0.70;99.90;;;;;;5046379;28;20435;-79
2024/01/22 01:05:40;;;;;;;18.80;17.20;;;-0.80;99.90;;;;;;5039215;28;20525;-78
2024/01/22 01:08:07;;;;;;;19.63;17.97;;;-0.80;99.90;;;;;;5044706;28;20476;-78
2024/01/22 01:10:34;;;;;;;19.33;17.67;;;-0.90;99.90;;;;;;5042420;28;20804;-78
2024/01/22 01:13:01;;;;;;;19.07;17.47;;;-0.90;99.90;;;;;;5037113;28;20457;-78
2024/01/22 01:15:28;;;;;;;20.00;18.20;;;-0.80;99.90;;;;;;5043768;28;20450;-78
2024/01/22 01:17:56;;;;;;;18.03;16.53;;;-0.90;99.90;;;;;;5040138;28;20618;-79
2024/01/22 01:20:23;;;;;;;17.67;16.27;;;-0.80;99.90;;;;;;5040095;28;20448;-77
2024/01/22 01:22:49;;;;;;;17.20;15.80;;;-0.80;99.90;;;;;;5038766;28;20444;-78
2024/01/22 01:25:16;;;;;;;16.77;15.47;;;-0.50;99.90;;;;;;5041559;28;20526;-79
2024/01/22 01:27:43;;;;;;;16.47;15.23;;;-0.40;99.90;;;;;;5041634;28;20463;-78
2024/01/22 01:30:11;;;;;;;16.60;15.20;;;-0.20;99.90;;;;;;5041008;28;20449;-79
2024/01/22 01:32:38;;;;;;;17.00;15.60;;;-0.30;99.90;;;;;;5041870;28;20436;-78
2024/01/22 01:35:07;;;;;;;18.13;16.53;;;-0.30;99.90;;;;;;5035664;28;20432;-78
2024/01/22 01:37:34;;;;;;;19.23;17.67;;;-0.50;99.90;;;;;;5039132;28;20457;-78
2024/01/22 01:40:00;;;;;;;19.80;18.13;;;-0.50;99.90;;;;;;5035371;28;20483;-78
2024/01/22 01:42:27;;;;;;;17.70;16.10;;;-0.60;99.90;;;;;;5041369;28;20861;-79
2024/01/22 01:44:55;;;;;;;15.80;14.70;;;-0.40;99.90;;;;;;5049755;28;20534;-78
2024/01/22 01:47:22;;;;;;;15.17;13.87;;;-0.20;99.90;;;;;;5043078;28;20437;-78
2024/01/22 01:49:49;;;;;;;15.03;14.03;;;0.00;99.90;;;;;;5042789;28;20451;-78
2024/01/22 01:52:19;;;;;;;15.10;14.00;;;0.30;99.90;;;;;;5037283;28;20430;-78
2024/01/22 01:54:47;;;;;;;14.67;13.50;;;0.40;99.90;;;;;;5040965;28;20540;-78
2024/01/22 01:57:14;;;;;;;14.80;13.70;;;0.60;99.90;;;;;;5043947;28;20453;-78
2024/01/22 01:59:42;;;;;;;14.50;13.30;;;0.70;99.90;;;;;;5034342;28;21025;-79
2024/01/22 02:02:09;;;;;;;14.43;13.30;;;0.80;99.90;;;;;;5040082;28;20983;-79
2024/01/22 02:04:36;;;;;;;14.13;13.17;;;0.70;99.90;;;;;;5040137;28;20999;-78
2024/01/22 02:07:04;;;;;;;15.07;13.93;;;0.70;99.90;;;;;;5036755;28;20457;-78
2024/01/22 02:09:49;;;;;;;14.10;13.20;;;0.60;99.90;;;;;;5042469;28;21031;-79
2024/01/22 02:12:16;;;;;;;14.57;13.57;;;0.50;99.90;;;;;;5043548;28;20844;-78
2024/01/22 02:14:43;;;;;;;14.83;13.73;;;0.50;99.90;;;;;;5044706;28;20876;-78
2024/01/22 02:17:10;;;;;;;14.10;13.20;;;0.50;99.90;;;;;;5044740;28;20938;-78
2024/01/22 02:19:37;;;;;;;15.10;13.90;;;0.40;99.90;;;;;;5032476;28;20465;-78
2024/01/22 02:22:04;;;;;;;15.40;14.10;;;0.50;99.90;;;;;;5045635;28;20468;-78
2024/01/22 02:24:32;;;;;;;15.93;14.63;;;0.50;99.90;;;;;;5038537;28;20449;-79
2024/01/22 02:26:59;;;;;;;15.03;14.03;;;0.50;99.90;;;;;;5043206;28;20494;-78
2024/01/22 02:29:26;;;;;;;15.33;14.27;;;0.50;99.90;;;;;;5047741;28;20471;-78
2024/01/22 02:31:54;;;;;;;15.07;13.97;;;0.50;99.90;;;;;;5039613;28;20452;-78
2024/01/22 02:34:21;;;;;;;14.50;13.50;;;0.50;99.90;;;;;;5051368;28;20519;-78
2024/01/22 02:36:48;;;;;;;14.57;13.63;;;0.60;99.90;;;;;;5049958;28;20445;-79
2024/01/22 02:39:15;;;;;;;15.00;14.00;;;0.60;99.90;;;;;;5035725;28;20484;-78
2024/01/22 02:41:43;;;;;;;15.20;14.10;;;0.60;99.90;;;;;;5044206;28;20456;-78
2024/01/22 02:44:10;;;;;;;14.40;13.50;;;0.60;99.90;;;;;;5044574;28;20467;-78
2024/01/22 02:46:37;;;;;;;15.57;14.47;;;0.60;99.90;;;;;;5042038;28;21022;-78
2024/01/22 02:49:03;;;;;;;15.40;14.30;;;0.60;99.90;;;;;;5043301;28;20969;-78
2024/01/22 02:51:30;;;;;;;15.40;14.20;;;0.60;99.90;;;;;;5049774;28;20865;-78
2024/01/22 02:53:57;;;;;;;15.43;14.33;;;0.50;99.90;;;;;;5045280;28;21029;-78
2024/01/22 02:56:24;;;;;;;15.10;14.10;;;0.50;99.90;;;;;;5048348;28;20479;-78
2024/01/22 02:58:52;;;;;;;15.67;14.53;;;0.40;99.90;;;;;;5038444;28;20504;-79
2024/01/22 03:01:19;;;;;;;16.33;15.03;;;0.40;99.90;;;;;;5041475;28;21069;-78
2024/01/22 03:03:46;;;;;;;16.10;14.80;;;0.40;99.90;;;;;;5050984;28;20437;-78
2024/01/22 03:06:13;;;;;;;16.37;15.10;;;0.40;99.90;;;;;;5033788;28;20223;-78
2024/01/22 03:08:40;;;;;;;15.33;14.23;;;0.40;99.90;;;;;;5050621;28;20567;-78
2024/01/22 03:11:08;;;;;;;15.37;14.23;;;0.40;99.90;;;;;;5044716;28;20960;-78
2024/01/22 03:13:35;;;;;;;15.70;14.40;;;0.40;99.90;;;;;;5049162;28;20473;-78
2024/01/22 03:16:03;;;;;;;14.97;13.67;;;0.40;99.90;;;;;;5047101;28;20434;-78
2024/01/22 03:18:33;;;;;;;15.67;14.50;;;0.40;99.90;;;;;;5041889;28;20484;-80
2024/01/22 03:21:02;;;;;;;16.27;14.77;;;0.30;99.90;;;;;;5031484;28;20537;-79
2024/01/22 03:23:29;;;;;;;15.20;14.20;;;0.30;99.90;;;;;;5037479;28;20433;-79
2024/01/22 03:25:56;;;;;;;15.40;14.30;;;0.20;99.90;;;;;;5043237;28;20523;-79
2024/01/22 03:28:22;;;;;;;15.37;14.27;;;0.20;99.90;;;;;;5042824;28;20457;-78
2024/01/22 03:30:49;;;;;;;15.50;14.30;;;0.10;99.90;;;;;;5035703;28;20460;-78
2024/01/22 03:33:18;;;;;;;15.97;14.77;;;0.10;99.90;;;;;;5049633;28;20531;-78
2024/01/22 03:35:45;;;;;;;15.73;14.60;;;0.10;99.90;;;;;;5037001;28;20544;-78
2024/01/22 03:38:12;;;;;;;15.77;14.57;;;0.00;99.90;;;;;;5047375;28;20485;-78
2024/01/22 03:40:41;;;;;;;15.20;14.20;;;0.00;99.90;;;;;;5040055;28;20635;-78
2024/01/22 03:43:08;;;;;;;16.50;15.23;;;0.10;99.90;;;;;;5034957;28;20442;-78
2024/01/22 03:45:34;;;;;;;15.97;14.77;;;0.10;99.90;;;;;;5036127;28;20961;-78
2024/01/22 03:48:01;;;;;;;16.23;14.97;;;0.20;99.90;;;;;;5036505;28;20549;-78
2024/01/22 03:50:29;;;;;;;16.70;15.50;;;0.20;99.90;;;;;;5034863;28;20448;-79
2024/01/22 03:52:56;;;;;;;15.93;14.57;;;0.30;99.90;;;;;;5029501;28;20457;-79
2024/01/22 03:55:23;;;;;;;15.57;14.37;;;0.30;99.90;;;;;;5033449;28;20438;-80
2024/01/22 03:57:50;;;;;;;15.73;14.53;;;0.30;99.90;;;;;;5025381;28;20637;-79
2024/01/22 04:00:17;;;;;;;16.10;14.77;;;0.30;99.90;;;;;;5034301;28;20440;-78
2024/01/22 04:02:44;;;;;;;15.27;14.00;;;0.40;99.90;;;;;;5027907;28;20532;-79
2024/01/22 04:05:11;;;;;;;15.80;14.70;;;0.40;99.90;;;;;;5034299;28;20943;-78
2024/01/22 04:07:40;;;;;;;15.10;14.00;;;0.40;99.90;;;;;;5032820;28;21022;-78
2024/01/22 04:10:09;;;;;;;15.77;14.50;;;0.40;99.90;;;;;;5032601;28;20490;-79
2024/01/22 04:12:36;;;;;;;15.53;14.33;;;0.30;99.90;;;;;;5029879;28;20455;-79
2024/01/22 04:15:05;;;;;;;15.57;14.47;;;0.30;99.90;;;;;;5030310;28;20433;-79
2024/01/22 04:17:32;;;;;;;15.63;14.33;;;0.30;99.90;;;;;;5040164;28;20801;-79
2024/01/22 04:19:59;;;;;;;16.00;14.80;;;0.30;99.90;;;;;;5041398;28;20975;-81
2024/01/22 04:22:26;;;;;;;15.63;14.43;;;0.30;99.90;;;;;;5042744;28;20440;-79
2024/01/22 04:24:54;;;;;;;16.03;14.77;;;0.40;99.90;;;;;;5038959;28;20446;-80
2024/01/22 04:27:20;;;;;;;14.70;13.70;;;0.50;99.90;;;;;;5052112;28;21014;-79
2024/01/22 04:29:47;;;;;;;14.30;13.40;;;0.70;99.90;;;;;;5032808;28;20971;-80
2024/01/22 04:32:14;;;;;;;15.20;14.10;;;0.80;99.90;;;;;;5033747;28;20454;-80
2024/01/22 04:34:42;;;;;;;15.53;14.33;;;1.00;99.90;;;;;;5041885;28;20445;-77
2024/01/22 04:37:09;;;;;;;14.97;13.80;;;1.00;99.90;;;;;;5038293;28;20473;-80
2024/01/22 04:39:36;;;;;;;14.77;13.67;;;0.90;99.90;;;;;;5040622;28;20524;-80
2024/01/22 04:42:04;;;;;;;14.90;13.80;;;0.90;99.90;;;;;;5042365;28;20445;-80
2024/01/22 04:44:31;;;;;;;14.70;13.60;;;0.80;99.90;;;;;;5035547;28;20469;-79
2024/01/22 04:46:58;;;;;;;14.90;13.80;;;0.80;99.90;;;;;;5032607;28;20481;-79
2024/01/22 04:49:25;;;;;;;14.47;13.47;;;0.80;99.90;;;;;;5038921;28;20472;-79
2024/01/22 04:51:52;;;;;;;14.17;13.17;;;1.00;99.90;;;;;;5047224;28;20470;-79
2024/01/22 04:54:18;;;;;;;13.37;12.53;;;1.20;99.90;;;;;;5037829;28;20508;-79
2024/01/22 04:56:46;;;;;;;13.40;12.40;;;1.30;99.90;;;;;;5046188;28;20442;-79
2024/01/22 04:59:15;;;;;;;13.80;12.90;;;1.50;99.90;;;;;;5039676;28;20219;-79
2024/01/22 05:01:42;;;;;;;15.00;14.00;;;1.50;99.90;;;;;;5040782;28;20561;-78
2024/01/22 05:04:09;;;;;;;14.13;13.23;;;1.60;99.90;;;;;;5044519;28;20524;-79
2024/01/22 05:06:35;;;;;;;14.80;13.80;;;1.70;99.90;;;;;;5043287;28;20211;-79
2024/01/22 05:09:04;;;;;;;14.30;13.40;;;1.80;99.90;;;;;;5043797;28;20478;-79
2024/01/22 05:11:31;;;;;;;13.77;12.87;;;1.90;99.90;;;;;;5039310;28;20475;-79
2024/01/22 05:13:58;;;;;;;14.43;13.33;;;1.90;99.90;;;;;;5046657;28;20228;-79
2024/01/22 05:16:26;;;;;;;14.13;13.23;;;2.00;99.90;;;;;;5046930;28;20198;-79
2024/01/22 05:18:53;;;;;;;13.50;12.60;;;2.00;99.90;;;;;;5032954;28;20590;-79
2024/01/22 05:21:21;;;;;;;13.80;12.93;;;2.10;99.90;;;;;;5040991;28;20187;-79
2024/01/22 05:23:48;;;;;;;13.63;12.80;;;2.20;99.90;;;;;;5042126;28;20294;-79
2024/01/22 05:26:14;;;;;;;14.17;13.30;;;2.20;99.90;;;;;;5047600;28;20650;-79
2024/01/22 05:28:41;;;;;;;14.17;13.23;;;2.30;99.90;;;;;;5042632;28;20219;-80
2024/01/22 05:31:08;;;;;;;14.30;13.30;;;2.40;99.90;;;;;;5040526;28;20195;-80
2024/01/22 05:33:36;;;;;;;14.40;13.40;;;2.40;99.90;;;;;;5046322;28;20199;-79
2024/01/22 05:36:03;;;;;;;13.20;12.30;;;2.50;99.90;;;;;;5040986;28;20196;-79
2024/01/22 05:38:30;;;;;;;13.60;12.60;;;2.60;99.90;;;;;;5044267;28;20732;-79
2024/01/22 05:40:57;;;;;;;14.23;13.07;;;2.70;99.90;;;;;;5044672;28;20799;-79
2024/01/22 05:43:23;;;;;;;14.10;13.10;;;2.80;99.90;;;;;;5042582;28;20290;-79
2024/01/22 05:45:50;;;;;;;13.90;13.00;;;2.90;99.90;;;;;;5043934;28;20261;-79
2024/01/22 05:48:17;;;;;;;13.70;12.80;;;3.00;99.90;;;;;;5045751;28;20219;-79
2024/01/22 05:50:45;;;;;;;14.30;13.20;;;3.10;99.90;;;;;;5034537;28;20207;-79
2024/01/22 05:53:12;;;;;;;14.10;13.20;;;3.00;99.90;;;;;;5042129;28;20239;-79
2024/01/22 05:55:39;;;;;;;14.17;13.27;;;3.00;99.90;;;;;;5045589;28;20218;-79
2024/01/22 05:58:06;;;;;;;14.00;13.10;;;3.00;99.90;;;;;;5035551;28;20227;-80
2024/01/22 06:00:33;;;;;;;13.67;12.87;;;3.10;99.90;;;;;;5048366;28;20199;-79
2024/01/22 06:03:00;;;;;;;12.97;12.17;;;3.20;99.90;;;;;;5044090;28;20203;-79
2024/01/22 06:05:27;;;;;;;12.77;12.03;;;3.20;99.90;;;;;;5043988;28;20189;-79
2024/01/22 06:07:55;;;;;;;12.93;12.07;;;3.30;99.90;;;;;;5042570;28;20218;-79
2024/01/22 06:10:22;;;;;;;12.93;12.13;;;3.40;99.90;;;;;;5037284;28;20255;-79
2024/01/22 06:12:49;;;;;;;12.23;11.53;;;3.40;99.90;;;;;;5044214;28;20221;-78
2024/01/22 06:15:16;;;;;;;13.30;12.43;;;3.50;99.90;;;;;;5032100;28;20227;-79
2024/01/22 06:17:43;;;;;;;13.20;12.20;;;3.40;99.90;;;;;;5043392;28;20226;-79
2024/01/22 06:20:11;;;;;;;12.90;12.20;;;3.40;99.90;;;;;;5041916;28;20199;-79
2024/01/22 06:22:38;;;;;;;13.47;12.57;;;3.40;99.90;;;;;;5039836;28;20548;-77
2024/01/22 06:25:07;;;;;;;13.47;12.57;;;3.40;99.90;;;;;;5038894;28;20258;-77
2024/01/22 06:27:33;;;;;;;13.73;12.73;;;3.50;99.90;;;;;;5034001;28;20657;-80
2024/01/22 06:30:01;;;;;;;13.53;12.63;;;3.50;99.90;;;;;;5047293;28;20260;-77
2024/01/22 06:32:28;;;;;;;13.67;12.77;;;3.60;99.90;;;;;;5046708;28;20212;-79
2024/01/22 06:34:55;;;;;;;13.67;12.77;;;3.70;99.90;;;;;;5031243;28;20258;-80
2024/01/22 06:37:23;;;;;;;14.20;13.20;;;3.70;99.90;;;;;;5031615;28;20192;-80
2024/01/22 06:39:50;;;;;;;13.27;12.27;;;3.70;99.90;;;;;;5044391;28;20203;-79
2024/01/22 06:42:18;;;;;;;13.53;12.53;;;3.70;99.90;;;;;;5043266;28;20468;-80
2024/01/22 06:44:45;;;;;;;13.27;12.37;;;3.80;99.90;;;;;;5046409;28;20571;-82
2024/01/22 06:47:12;;;;;;;13.17;12.27;;;3.80;99.90;;;;;;5034188;28;20710;-81
2024/01/22 06:49:39;;;;;;;12.87;12.07;;;3.80;99.90;;;;;;5044948;28;20195;-79
2024/01/22 06:52:06;;;;;;;13.03;12.23;;;3.90;99.90;;;;;;5041402;28;20253;-79
2024/01/22 06:54:33;;;;;;;12.53;11.73;;;4.00;99.90;;;;;;5042407;28;20732;-80
2024/01/22 06:56:59;;;;;;;12.60;11.80;;;4.00;99.90;;;;;;5038079;28;20192;-79
2024/01/22 06:59:28;;;;;;;12.57;11.87;;;4.10;99.90;;;;;;5037653;28;20265;-83
2024/01/22 07:01:55;;;;;;;13.47;12.67;;;4.10;99.90;;;;;;5045261;28;20192;-80
2024/01/22 07:04:26;;;;;;;12.73;11.93;;;4.10;99.90;;;;;;5039944;28;20197;-80
2024/01/22 07:06:53;;;;;;;12.90;12.10;;;4.20;99.90;;;;;;5030942;28;20726;-84
2024/01/22 07:09:20;;;;;;;12.83;12.03;;;4.20;99.90;;;;;;5045909;28;20261;-80
2024/01/22 07:11:47;;;;;;;12.87;12.17;;;4.30;99.90;;;;;;5032589;28;20346;-77
2024/01/22 07:14:14;;;;;;;12.10;11.40;;;4.40;99.90;;;;;;5038018;28;20280;-79
2024/01/22 07:16:42;;;;;;;12.47;11.77;;;4.50;99.90;;;;;;5045212;28;20563;-80
2024/01/22 07:19:09;;;;;;;12.87;12.10;;;4.60;99.90;;;;;;5040401;28;20215;-79
2024/01/22 07:21:36;;;;;;;12.87;12.00;;;4.70;99.90;;;;;;5045748;28;20207;-79
2024/01/22 07:24:03;;;;;;;12.23;11.60;;;4.80;99.90;;;;;;5043327;28;20200;-80
2024/01/22 07:26:29;;;;;;;13.00;12.20;;;4.80;99.90;;;;;;5041188;28;20218;-81
2024/01/22 07:28:56;;;;;;;13.13;12.33;;;4.90;99.90;;;;;;5043419;28;20219;-79
2024/01/22 07:31:23;;;;;;;12.40;11.70;;;5.00;99.90;;;;;;5041647;28;20265;-82
2024/01/22 07:33:51;;;;;;;12.97;12.27;;;5.00;99.90;;;;;;5048246;28;20247;-77
2024/01/22 07:36:18;;;;;;;12.60;11.90;;;5.10;99.90;;;;;;5050684;28;20191;-79
2024/01/22 07:38:45;;;;;;;13.00;12.20;;;5.20;99.90;;;;;;5040839;28;20698;-79
2024/01/22 07:41:12;;;;;;;13.10;12.30;;;5.30;99.90;;;;;;5041245;28;20197;-80
2024/01/22 07:43:38;;;;;;;12.53;11.80;;;5.30;99.90;;;;;;5044187;28;20553;-78
2024/01/22 07:46:05;;;;;;;12.40;11.70;;;5.50;99.90;;;;;;5039082;28;20217;-79
2024/01/22 07:48:32;;;;;;;12.70;12.00;;;5.50;99.90;;;;;;5038112;28;20243;-80
2024/01/22 07:51:00;;;;;;;12.43;11.73;;;5.70;99.90;;;;;;5043364;28;20202;-79
2024/01/22 07:53:27;;;;;;;12.73;12.03;;;5.70;99.90;;;;;;5046202;28;20201;-79
2024/01/22 07:55:54;;;;;;;12.10;11.50;;;5.80;99.90;;;;;;5045603;28;20326;-79
2024/01/22 07:58:20;;;;;;;12.10;11.40;;;5.90;99.90;;;;;;5041267;28;20640;-79
2024/01/22 08:00:47;;;;;;;12.13;11.47;;;6.10;99.90;;;;;;5047587;28;20273;-80
2024/01/22 08:03:14;;;;;;;12.30;11.60;;;6.10;99.90;;;;;;5033860;28;20226;-79
2024/01/22 08:05:41;;;;;;;12.00;11.30;;;6.20;99.90;;;;;;5048449;28;20198;-80
2024/01/22 08:08:10;;;;;;;11.47;10.87;;;6.20;99.90;;;;;;5034464;28;20329;-79
2024/01/22 08:10:37;;;;;;;11.70;11.10;;;6.30;99.90;;;;;;5043598;28;20670;-80
2024/01/22 08:13:05;;;;;;;11.97;11.33;;;6.40;99.90;;;;;;5045420;28;20232;-79
2024/01/22 08:15:32;;;;;;;12.00;11.40;;;6.50;99.90;;;;;;5047104;28;20575;-79
2024/01/22 08:17:59;;;;;;;12.03;11.33;;;6.60;99.90;;;;;;5043858;28;20227;-79
2024/01/22 08:20:26;;;;;;;12.43;11.70;;;6.60;99.90;;;;;;5041090;28;20321;-81
2024/01/22 08:22:52;;;;;;;11.30;10.70;;;6.70;99.90;;;;;;5041171;28;20203;-80
2024/01/22 08:25:27;;;;;;;11.73;11.13;;;6.70;99.90;;;;;;5032874;28;20234;-80
2024/01/22 08:27:54;;;;;;;11.63;11.03;;;6.70;99.90;;;;;;5034524;28;20692;-81
2024/01/22 08:30:21;;;;;;;12.17;11.50;;;6.80;99.90;;;;;;5040744;28;20227;-81
2024/01/22 08:32:51;;;;;;;11.50;10.90;;;6.80;99.90;;;;;;5039590;28;20202;-80
2024/01/22 08:35:19;;;;;;;12.50;11.80;;;7.00;99.90;;;;;;5040956;28;20650;-80
2024/01/22 08:37:50;;;;;;;11.70;11.00;;;7.10;99.90;;;;;;5047999;28;20651;-79
2024/01/22 08:40:21;;;;;;;11.43;10.83;;;7.20;99.90;;;;;;5048392;28;20223;-79
2024/01/22 08:42:50;;;;;;;11.87;11.17;;;7.40;99.90;;;;;;5038595;28;20203;-81
2024/01/22 08:45:19;;;;;;;11.67;11.07;;;7.50;99.90;;;;;;5044458;28;20260;-81
2024/01/22 08:47:46;;;;;;;11.37;10.73;;;7.60;99.90;;;;;;5034476;28;20235;-81
2024/01/22 08:50:17;;;;;;;11.60;11.00;;;7.60;99.90;;;;;;5033331;28;20202;-81
2024/01/22 08:52:44;;;;;;;11.50;10.90;;;7.70;99.90;;;;;;5042791;28;20345;-80
2024/01/22 08:55:11;;;;;;;11.10;10.50;;;7.80;99.90;;;;;;5035047;28;20694;-80
2024/01/22 08:57:38;;;;;;;12.00;11.40;;;7.80;99.90;;;;;;5041047;28;20219;-79
2024/01/22 09:00:10;;;;;;;11.40;10.80;;;7.90;99.90;;;;;;5045910;28;20234;-80
2024/01/22 09:02:39;;;;;;;11.60;11.00;;;7.90;99.90;;;;;;5040823;28;20196;-79
2024/01/22 09:05:07;;;;;;;11.80;11.20;;;8.00;99.90;;;;;;5033365;28;20203;-78
2024/01/22 09:07:35;;;;;;;11.63;11.03;;;8.00;99.90;;;;;;5038416;28;20250;-79
2024/01/22 09:10:02;;;;;;;11.80;11.20;;;8.00;99.90;;;;;;5042691;28;20207;-79
2024/01/22 09:12:29;;;;;;;12.40;11.70;;;8.10;99.90;;;;;;5043488;28;20249;-79
2024/01/22 09:14:56;;;;;;;11.20;10.60;;;8.10;99.90;;;;;;5047012;28;20264;-79
2024/01/22 09:17:24;;;;;;;11.20;10.60;;;8.20;99.90;;;;;;5033270;28;20249;-79
2024/01/22 09:19:51;;;;;;;11.80;11.20;;;8.40;99.90;;;;;;5045318;28;20615;-79
2024/01/22 09:22:19;;;;;;;11.70;11.10;;;8.60;99.90;;;;;;5034235;28;20625;-80
2024/01/22 09:24:46;;;;;;;11.97;11.27;;;8.70;99.90;;;;;;5043355;28;20199;-79
2024/01/22 09:27:13;;;;;;;11.60;11.00;;;8.80;99.90;;;;;;5042845;28;20215;-79
2024/01/22 09:29:41;;;;;;;12.17;11.50;;;8.90;99.90;;;;;;5043349;28;20196;-79
2024/01/22 09:32:09;;;;;;;11.90;11.30;;;9.00;99.90;;;;;;5046075;28;20203;-79
2024/01/22 09:34:37;;;;;;;12.63;11.93;;;9.10;99.90;;;;;;5044800;28;20685;-79
2024/01/22 09:37:04;;;;;;;12.13;11.43;;;9.30;99.90;;;;;;5040833;28;20253;-79
2024/01/22 09:39:31;;;;;;;12.30;11.60;;;9.40;99.90;;;;;;5045484;28;20218;-79
2024/01/22 09:41:59;;;;;;;12.33;11.63;;;9.50;99.90;;;;;;5040171;28;20200;-79
2024/01/22 09:44:26;;;;;;;12.63;11.93;;;9.70;99.90;;;;;;5045031;28;20227;-79
2024/01/22 09:46:53;;;;;;;12.30;11.70;;;9.80;99.90;;;;;;5039973;28;20199;-79
2024/01/22 09:49:20;;;;;;;12.30;11.60;;;10.00;99.90;;;;;;5040523;28;20302;-79
2024/01/22 09:51:48;;;;;;;12.40;11.70;;;10.10;99.90;;;;;;5042284;28;20584;-79
2024/01/22 09:54:18;;;;;;;11.50;10.90;;;10.20;99.90;;;;;;5048082;28;20220;-79
2024/01/22 09:56:50;;;;;;;12.10;11.47;;;10.30;99.90;;;;;;5046115;28;20218;-79
2024/01/22 09:59:19;;;;;;;12.07;11.37;;;10.40;99.90;;;;;;5032610;28;20225;-79
2024/01/22 10:01:47;;;;;;;12.00;11.30;;;10.40;99.90;;;;;;5049026;28;20232;-79
2024/01/22 10:04:14;;;;;;;11.97;11.37;;;10.50;99.90;;;;;;5039114;28;20198;-79
2024/01/22 10:06:41;;;;;;;11.73;11.13;;;10.60;99.90;;;;;;5051606;28;20253;-79
2024/01/22 10:09:14;;;;;;;11.83;11.13;;;10.60;99.90;;;;;;5042430;28;20248;-79
2024/01/22 10:11:42;;;;;;;11.80;11.10;;;10.70;99.90;;;;;;5030458;28;20202;-80
2024/01/22 10:14:08;;;;;;;11.73;11.13;;;10.70;99.90;;;;;;5039239;28;20201;-80
2024/01/22 10:16:36;;;;;;;11.67;11.07;;;10.70;99.90;;;;;;5040813;28;20202;-80
2024/01/22 10:19:06;;;;;;;12.00;11.40;;;10.70;99.90;;;;;;5046890;28;20223;-80
2024/01/22 10:21:34;;;;;;;11.73;11.13;;;10.80;99.90;;;;;;5035415;28;20216;-80
2024/01/22 10:24:03;;;;;;;11.97;11.37;;;10.80;99.90;;;;;;5036752;28;20207;-80
2024/01/22 10:26:32;;;;;;;11.83;11.23;;;10.70;99.90;;;;;;5031220;28;20257;-80
2024/01/22 10:29:13;;;;;;;11.90;11.30;;;10.70;99.90;;;;;;5043951;28;20228;-80
2024/01/22 10:31:54;;;;;;;11.97;11.20;;;10.80;99.90;;;;;;5024352;28;20226;-80
2024/01/22 10:34:20;;;;;;;11.57;10.97;;;10.80;99.90;;;;;;5040472;28;20723;-79
2024/01/22 10:37:05;;;;;;;11.40;10.80;;;10.80;99.90;;;;;;5030770;28;20207;-80
2024/01/22 10:39:32;;;;;;;11.57;10.97;;;10.70;99.90;;;;;;5036115;28;20701;-80
2024/01/22 10:42:08;;;;;;;11.77;11.03;;;10.70;99.90;;;;;;5045079;28;20210;-80
2024/01/22 10:44:36;;;;;;;12.30;11.60;;;10.70;99.90;;;;;;5048316;28;20204;-80
2024/01/22 10:47:04;;;;;;;11.10;10.40;;;10.60;99.90;;;;;;5034773;28;20295;-80
2024/01/22 10:49:32;;;;;;;11.40;10.80;;;10.60;99.90;;;;;;5033320;28;20217;-80
2024/01/22 10:52:00;;;;;;;11.90;11.20;;;10.60;99.90;;;;;;5039815;28;20205;-80
2024/01/22 10:54:27;;;;;;;12.03;11.33;;;10.60;99.90;;;;;;5047998;28;20261;-80
2024/01/22 10:57:01;;;;;;;12.00;11.30;;;10.60;99.90;;;;;;5047572;28;20213;-80
2024/01/22 10:59:30;;;;;;;12.10;11.50;;;10.60;99.90;;;;;;5043398;28;20218;-80
2024/01/22 11:01:59;;;;;;;11.47;10.87;;;10.60;99.90;;;;;;5043134;28;20265;-80
2024/01/22 11:04:32;;;;;;;12.10;11.40;;;10.60;99.90;;;;;;5044190;28;20276;-79
2024/01/22 11:07:01;;;;;;;11.87;11.27;;;10.60;99.90;;;;;;5045989;28;20209;-80
2024/01/22 11:09:31;;;;;;;11.90;11.20;;;10.60;99.90;;;;;;5042265;28;20226;-81
2024/01/22 11:12:04;;;;;;;12.40;11.70;;;10.60;99.90;;;;;;5052306;28;20267;-79
2024/01/22 11:14:33;;;;;;;12.00;11.40;;;10.60;99.90;;;;;;5047741;28;20193;-80
2024/01/22 11:17:02;;;;;;;11.90;11.30;;;10.60;99.90;;;;;;5037542;28;20251;-80
2024/01/22 11:19:29;;;;;;;11.60;11.00;;;10.70;99.90;;;;;;5040739;28;20227;-80
2024/01/22 11:21:56;;;;;;;11.67;11.07;;;10.80;99.90;;;;;;5050241;28;20206;-80
2024/01/22 11:24:23;;;;;;;11.83;11.13;;;10.90;99.90;;;;;;5043782;28;20513;-79
2024/01/22 11:27:04;;;;;;;11.70;11.10;;;10.90;99.90;;;;;;5046525;28;20208;-80
2024/01/22 11:29:32;;;;;;;11.53;10.93;;;11.00;99.90;;;;;;5045296;28;20579;-80
2024/01/22 11:32:27;;;;;;;11.80;11.20;;;11.00;99.90;;;;;;5047467;28;20288;-80
2024/01/22 11:34:57;;;;;;;11.80;11.20;;;11.00;99.90;;;;;;5032602;28;20296;-82
2024/01/22 11:37:34;;;;;;;12.20;11.60;;;11.00;99.90;;;;;;5029979;28;20250;-81
2024/01/22 11:40:01;;;;;;;12.00;11.30;;;11.00;99.90;;;;;;5042320;28;20296;-79
2024/01/22 11:42:29;;;;;;;11.53;10.83;;;11.10;99.90;;;;;;5047203;28;20741;-79
2024/01/22 11:44:58;;;;;;;11.40;10.80;;;11.10;99.90;;;;;;5044965;28;20408;-79
2024/01/22 11:47:27;;;;;;;12.03;11.43;;;11.10;99.90;;;;;;5049189;28;20216;-79
2024/01/22 11:50:01;;;;;;;12.10;11.50;;;11.10;99.90;;;;;;5033365;28;20207;-80
2024/01/22 11:52:28;;;;;;;11.93;11.33;;;11.20;99.90;;;;;;5044819;28;20297;-79
2024/01/22 11:54:57;;;;;;;12.03;11.33;;;11.10;99.90;;;;;;5045179;28;20305;-79
2024/01/22 11:57:25;;;;;;;11.87;11.27;;;11.20;99.90;;;;;;5046791;28;20582;-79
2024/01/22 12:00:04;;;;;;;11.77;11.17;;;11.30;99.90;;;;;;5036999;28;20204;-79
2024/01/22 12:02:38;;;;;;;12.17;11.50;;;11.40;99.90;;;;;;5043939;28;20527;-80
2024/01/22 12:05:09;;;;;;;11.87;11.17;;;11.40;99.90;;;;;;5045711;28;20202;-79
2024/01/22 12:07:38;;;;;;;12.20;11.50;;;11.40;99.90;;;;;;5037607;28;20216;-80
2024/01/22 12:10:06;;;;;;;12.47;11.77;;;11.40;99.90;;;;;;5038690;28;20202;-80
2024/01/22 12:12:33;;;;;;;11.70;11.10;;;11.40;99.90;;;;;;5047811;28;20229;-79
2024/01/22 12:15:01;;;;;;;12.40;11.70;;;11.30;99.90;;;;;;5037245;28;20199;-79
2024/01/22 12:17:28;;;;;;;12.07;11.47;;;11.30;99.90;;;;;;5040176;28;20206;-79
2024/01/22 12:19:57;;;;;;;12.13;11.53;;;11.20;99.90;;;;;;5033964;28;20207;-79
2024/01/22 12:22:25;;;;;;;12.50;11.90;;;11.10;99.90;;;;;;5041701;28;20198;-79
2024/01/22 12:25:06;;;;;;;11.67;10.97;;;11.10;99.90;;;;;;5046365;28;20256;-80
2024/01/22 12:27:33;;;;;;;12.00;11.40;;;11.10;99.90;;;;;;5048858;28;20198;-80
2024/01/22 12:30:02;;;;;;;12.50;11.80;;;11.00;99.90;;;;;;5048447;28;20570;-80
2024/01/22 12:32:28;;;;;;;12.10;11.50;;;11.00;99.90;;;;;;5041968;28;20203;-80
2024/01/22 12:34:57;;;;;;;11.67;10.93;;;11.00;99.90;;;;;;5041717;28;20617;-80
2024/01/22 12:37:27;;;;;;;11.97;11.27;;;11.00;99.90;;;;;;5043537;28;20204;-79